Flight Track Log - Related Links

Times and Time Zones

All times are in EST time to prevent confusion due to time zone crossing. See the UAL4663 flight status page for this flight to view local times or setup timezone preferences in your user account.

Time Position Orientation Groundspeed Altitude Reporting Facility
EST Latitude Longitude Course Direction KTS MPH feet Rate Location/Type
Fri 05:10:25 PM 35.3786 -97.6058 171° South 144 166 1,900  Level Fort Worth Center
Fri 05:11:13 PM 35.3442 -97.5989 171° South 161 185 3,400 2,063 Climbing Fort Worth Center
Fri 05:12:01 PM 35.2983 -97.5931 174° South 200 230 5,200 1,964 Climbing Fort Worth Center
Fri 05:13:03 PM 35.2319 -97.5847 174° South 242 278 7,000 1,839 Climbing Fort Worth Center
Fri 05:14:05 PM 35.1575 -97.5756 174° South 268 308 9,000 1,887 Climbing Fort Worth Center
Fri 05:15:07 PM 35.0719 -97.5675 176° South 286 329 10,900 1,645 Climbing Fort Worth Center
Fri 05:16:09 PM 34.9856 -97.5556 174° South 310 357 12,400 1,597 Climbing Fort Worth Center
Fri 05:17:11 PM 34.8947 -97.5292 167° South 336 387 14,200 1,258 Climbing Fort Worth Center
Fri 05:18:13 PM 34.7947 -97.4767 157° South 350 403 15,000 774 Climbing Fort Worth Center
Fri 05:19:15 PM 34.7033 -97.4281 156° South 367 422 15,800 1,306 Climbing Fort Worth Center
Fri 05:20:17 PM 34.6047 -97.3744 156° South 388 447 17,700 2,081 Climbing Fort Worth Center
Fri 05:21:19 PM 34.4917 -97.3144 156° South 377 434 20,100 1,790 Climbing Fort Worth Center
Fri 05:22:21 PM 34.3931 -97.2614 156° South 368 423 21,400 1,258 Climbing Fort Worth Center
Fri 05:23:23 PM 34.2931 -97.2117 158° South 372 428 22,700 1,152 Climbing Fort Worth Center
Fri 05:24:26 PM 34.1897 -97.1594 157° South 394 453 23,800 1,056 Climbing Fort Worth Center
Fri 05:25:28 PM 34.0839 -97.1408 172° South 390 449 24,900 1,065 Climbing Fort Worth Center
Fri 05:26:30 PM 33.9778 -97.1208 171° South 387 445 26,000 968 Climbing Fort Worth Center
Fri 05:27:32 PM 33.8708 -97.0989 170° South 388 447 26,900 484 Climbing Fort Worth Center
Fri 05:28:34 PM 33.7597 -97.0767 171° South 396 456 27,000 48 Climbing Fort Worth Center
Fri 05:29:36 PM 33.6189 -97.0486 171° South 418 481 27,000  Level Fort Worth Center
Fri 05:30:38 PM 33.4953 -97.0242 171° South 441 507 27,000  Level Fort Worth Center
Fri 05:31:40 PM 33.3731 -96.9989 170° South 446 513 27,000  Level Fort Worth Center
Fri 05:32:42 PM 33.2494 -96.9750 171° South 446 513 27,000  Level Fort Worth Center
Fri 05:33:44 PM 33.1253 -96.9494 170° South 448 516 27,000  Level Fort Worth Center
Fri 05:34:46 PM 32.9986 -96.9250 171° South 452 520 27,000  Level Fort Worth Center
Fri 05:35:48 PM 32.8719 -96.8989 170° South 454 522 27,000  Level Fort Worth Center
Fri 05:36:51 PM 32.7461 -96.8633 167° South 459 528 27,000  Level Fort Worth Center
Fri 05:37:53 PM 32.5950 -96.8211 167° South 461 531 27,000  Level Fort Worth Center
Fri 05:38:55 PM 32.4839 -96.7883 166° South 463 533 27,000  Level Fort Worth Center
Fri 05:39:57 PM 32.3364 -96.7458 166° South 462 532 27,000  Level Fort Worth Center
Fri 05:40:59 PM 32.2097 -96.7106 167° South 462 532 27,000  Level Fort Worth Center
Fri 05:42:01 PM 32.0839 -96.6739 166° South 461 531 27,000  Level Fort Worth Center
Fri 05:43:04 PM 31.9575 -96.6386 167° South 461 531 27,000  Level Fort Worth Center
Fri 05:44:06 PM 31.8311 -96.6039 167° South 460 529 27,000  Level Fort Worth Center
Fri 05:45:08 PM 31.7056 -96.5669 166° South 460 529 27,000  Level Fort Worth Center
Fri 05:46:10 PM 31.5800 -96.5311 166° South 458 527 27,000  Level Fort Worth Center
Fri 05:47:12 PM 31.4344 -96.4775 163° South 464 534 27,000  Level Fort Worth Center
Fri 05:48:14 PM 31.3158 -96.4022 152° Southeast 477 549 27,000 -387 Level Fort Worth Center
Fri 05:49:16 PM 31.1972 -96.3269 151° Southeast 478 550 26,200 -1,500 Descending Fort Worth Center
Fri 05:50:18 PM 31.0833 -96.2553 152° Southeast 463 533 23,900 -2,468 Descending Fort Worth Center
Fri 05:51:20 PM 30.9742 -96.1856 151° Southeast 448 516 21,100 -2,592 Descending Fort Worth Center
Fri 05:52:23 PM 30.8633 -96.1169 152° Southeast 445 512 18,500 -2,636 Descending Fort Worth Center
Fri 05:53:32 PM 30.7369 -96.0389 152° Southeast 388 447 15,300 -2,714 Descending Houston Center
Fri 05:53:47 PM 30.7139 -96.0242 151° Southeast 414 476 14,700 -2,441 Descending Houston Center
Fri 05:54:31 PM 30.6483 -95.9836 152° Southeast 390 449 12,900 -2,256 Descending Houston Center
Fri 05:55:52 PM 30.5239 -95.9056 152° Southeast 387 445 10,000 -1,438 Descending Houston Center
Fri 05:56:32 PM 30.4622 -95.8692 153° Southeast 305 351 10,000 -194 Level Houston Center
Fri 05:56:54 PM 30.4444 -95.8614 159° South 314 361 9,800 -1,180 Descending Houston Center
Fri 05:57:33 PM 30.3858 -95.8369 160° South 289 333 8,800 -1,238 Descending Houston Center
Fri 05:57:57 PM 30.3689 -95.8283 156° South 294 338 8,500 -1,355 Descending Houston Center
Fri 05:58:35 PM 30.3094 -95.8047 161° South 293 337 7,400 -1,645 Descending Houston Center
Fri 05:58:59 PM 30.2775 -95.7903 159° South 290 334 6,800 -1,235 Descending Houston Center
Fri 05:59:43 PM 30.2289 -95.7706 161° South 266 306 6,000 -774 Descending Houston Center
Fri 06:00:01 PM 30.2100 -95.7600 154° Southeast 266 306 6,000 -393 Level Houston Center
Fri 06:00:44 PM 30.1614 -95.7422 162° South 259 298 5,600 -656 Descending Houston Center
Fri 06:01:05 PM 30.1422 -95.7322 156° South 260 299 5,300 -1,138 Descending Houston Center
Fri 06:01:42 PM 30.0981 -95.7158 162° South 262 302 4,500 -1,082 Descending Houston Center
Fri 06:02:06 PM 30.0842 -95.6919 124° Southeast 249 287 4,200 -1,200 Descending Houston Center
Fri 06:02:42 PM 30.0583 -95.6456 123° Southeast 243 280 3,300 -1,180 Descending Houston Center
Fri 06:03:07 PM 30.0494 -95.6244 116° Southeast 247 284 3,000 -295 Descending Houston Center
Fri 06:03:43 PM 30.0275 -95.5842 122° Southeast 211 243 3,000  Level Houston Center
Fri 06:04:11 PM 30.0197 -95.5656 116° Southeast 231 266 3,000 -409 Level Houston Center
Fri 06:05:11 PM 30.0067 -95.4914 101° East 210 242 2,400 -742 Descending Houston Center
Fri 06:05:48 PM 30.0061 -95.4611 91° East 164 189 1,800 -818 Descending Houston Center
Fri 06:06:17 PM 30.0078 -95.4403 85° East 185 213 1,500 -762 Descending Houston Center
Fri 06:06:51 PM 30.0064 -95.4178 94° East 137 158 1,000 -724 Descending Houston Center
Fri 06:07:15 PM 30.0072 -95.3961 87° East 160 184 800 -689 Descending Houston Center
Fri 06:07:52 PM 30.0064 -95.3719 92° East 128 147 300 -375 Descending Houston Center
Fri 06:08:19 PM 30.0069 -95.3475 88° East 149 171 400 222 Climbing Houston Center
Fri 06:10:00 PM 29.9833 -95.3333 100° East  Level FlightAware Approximate

Login

Don't have an account? Register now (free) for customized features, flight alerts, and more!